createdAt,value
2018-10-11T00:00:13.803Z,31.10
2018-10-11T00:04:16.136Z,33.93
2018-10-11T00:08:18.441Z,31.30
2018-10-11T00:12:21.007Z,29.00
2018-10-11T00:16:23.367Z,30.97
2018-10-11T00:20:25.863Z,30.67
2018-10-11T00:24:28.268Z,28.57
2018-10-11T00:28:30.582Z,27.07
2018-10-11T00:32:34.768Z,27.27
2018-10-11T00:36:37.066Z,27.30
2018-10-11T00:40:40.927Z,28.27
2018-10-11T00:44:44.447Z,31.70
2018-10-11T00:48:46.746Z,27.57
2018-10-11T00:52:49.089Z,28.43
2018-10-11T00:56:51.346Z,28.03
2018-10-11T01:00:53.612Z,30.97
2018-10-11T01:04:55.916Z,29.87
2018-10-11T01:08:58.235Z,32.30
2018-10-11T01:13:00.587Z,32.33
2018-10-11T01:17:03.906Z,32.00
2018-10-11T01:21:15.660Z,31.70
2018-10-11T01:25:21.298Z,31.93
2018-10-11T01:29:23.657Z,30.40
2018-10-11T01:33:26.116Z,32.10
2018-10-11T01:37:28.413Z,32.83
2018-10-11T01:41:30.796Z,32.40
2018-10-11T01:45:33.849Z,30.40
2018-10-11T01:49:36.562Z,31.27
2018-10-11T01:53:39.033Z,31.27
2018-10-11T01:57:41.431Z,32.03
2018-10-11T02:01:43.711Z,35.00
2018-10-11T02:05:46.036Z,32.67
2018-10-11T02:09:48.342Z,34.97
2018-10-11T02:13:50.722Z,32.40
2018-10-11T02:17:53.123Z,35.77
2018-10-11T02:21:55.433Z,36.77
2018-10-11T02:25:57.708Z,32.57
2018-10-11T02:30:00.048Z,31.87
2018-10-11T02:34:02.471Z,28.23
2018-10-11T02:38:04.826Z,33.23
2018-10-11T02:42:07.240Z,36.17
2018-10-11T02:46:09.646Z,35.60
2018-10-11T02:50:12.027Z,36.10
2018-10-11T02:54:14.433Z,41.43
2018-10-11T02:58:28.261Z,38.63
2018-10-11T03:02:31.135Z,37.50
2018-10-11T03:06:34.794Z,36.37
2018-10-11T03:10:37.222Z,38.53
2018-10-11T03:14:39.606Z,36.63
2018-10-11T03:18:42.021Z,38.27
2018-10-11T03:22:44.370Z,39.13
2018-10-11T03:26:46.765Z,41.67
2018-10-11T03:30:49.112Z,40.93
2018-10-11T03:34:51.443Z,42.57
2018-10-11T03:38:53.796Z,37.30
2018-10-11T03:42:56.734Z,35.30
2018-10-11T03:46:59.081Z,36.37
2018-10-11T03:51:01.389Z,36.90
2018-10-11T03:55:03.752Z,44.20
2018-10-11T03:59:06.427Z,41.53
2018-10-11T04:03:08.732Z,44.13
2018-10-11T04:07:11.080Z,44.83
2018-10-11T04:11:13.346Z,49.43
2018-10-11T04:15:15.692Z,44.63
2018-10-11T04:19:18.071Z,42.23
2018-10-11T04:23:27.552Z,39.73
2018-10-11T04:27:29.910Z,44.53
2018-10-11T04:31:32.356Z,41.83
2018-10-11T04:35:34.674Z,44.10
2018-10-11T04:39:37.123Z,41.50
2018-10-11T04:43:39.424Z,43.90
2018-10-11T04:47:41.810Z,45.67
2018-10-11T04:51:44.245Z,41.03
2018-10-11T04:55:46.592Z,36.53
2018-10-11T04:59:48.925Z,39.17
2018-10-11T05:03:51.300Z,42.90
2018-10-11T05:07:53.628Z,42.30
2018-10-11T05:11:55.950Z,48.53
2018-10-11T05:15:58.300Z,44.97
2018-10-11T05:20:00.689Z,40.27
2018-10-11T05:24:03.066Z,41.80
2018-10-11T05:28:05.435Z,45.33
2018-10-11T05:32:07.846Z,44.73
2018-10-11T05:36:10.305Z,49.20
2018-10-11T05:40:12.689Z,44.77
2018-10-11T05:44:15.119Z,42.73
2018-10-11T05:48:17.456Z,40.83
2018-10-11T05:52:19.803Z,40.93
2018-10-11T05:56:23.474Z,45.07
2018-10-11T06:00:25.815Z,39.00
2018-10-11T06:04:28.224Z,39.60
2018-10-11T06:08:30.585Z,42.53
2018-10-11T06:12:32.948Z,41.17
2018-10-11T06:16:35.295Z,42.97
2018-10-11T06:20:37.695Z,41.50
2018-10-11T06:24:40.055Z,43.47
2018-10-11T06:28:42.973Z,38.30
2018-10-11T06:32:45.442Z,39.40
2018-10-11T06:36:47.875Z,40.00
2018-10-11T06:40:50.371Z,33.83
2018-10-11T06:44:53.474Z,32.40
2018-10-11T06:48:55.896Z,32.70
2018-10-11T06:52:58.552Z,32.67
2018-10-11T06:57:00.910Z,31.50
2018-10-11T07:01:03.306Z,28.83
2018-10-11T07:05:05.724Z,28.47
2018-10-11T07:09:08.383Z,31.87
2018-10-11T07:13:10.756Z,29.90
2018-10-11T07:17:13.114Z,26.57
2018-10-11T07:21:15.524Z,27.47
2018-10-11T07:25:17.898Z,27.70
2018-10-11T07:29:20.306Z,26.23
2018-10-11T07:33:22.618Z,24.37
2018-10-11T07:37:24.990Z,24.53
2018-10-11T07:41:27.415Z,24.23
2018-10-11T07:45:29.761Z,22.50
2018-10-11T07:49:32.150Z,24.47
2018-10-11T07:53:34.526Z,25.40
2018-10-11T07:57:36.869Z,24.60
2018-10-11T08:01:39.380Z,22.83
2018-10-11T08:05:41.649Z,24.53
2018-10-11T08:09:43.959Z,24.20
2018-10-11T08:13:46.328Z,23.50
2018-10-11T08:17:48.956Z,22.50
2018-10-11T08:21:51.019Z,23.33
2018-10-11T08:25:53.561Z,22.70
2018-10-11T08:29:55.845Z,24.47
2018-10-11T08:33:58.158Z,25.23
2018-10-11T08:38:00.672Z,24.80
2018-10-11T08:42:02.872Z,25.30
2018-10-11T08:46:05.473Z,24.70
2018-10-11T08:50:07.910Z,26.43
2018-10-11T08:54:16.015Z,24.57
2018-10-11T08:58:18.463Z,25.73
2018-10-11T09:02:20.750Z,25.57
2018-10-11T09:06:23.166Z,26.60
2018-10-11T09:10:37.861Z,24.13
2018-10-11T09:14:28.014Z,23.60
2018-10-11T09:18:30.380Z,25.37
2018-10-11T09:22:32.759Z,22.30
2018-10-11T09:26:35.102Z,24.30
2018-10-11T09:30:37.489Z,25.20
2018-10-11T09:34:41.268Z,24.93
2018-10-11T09:38:43.640Z,24.43
2018-10-11T09:42:46.041Z,22.70
2018-10-11T09:46:48.418Z,24.63
2018-10-11T09:50:50.784Z,22.57
2018-10-11T09:54:53.268Z,23.17
2018-10-11T09:58:55.650Z,24.27
2018-10-11T10:02:58.289Z,23.27
2018-10-11T10:07:00.734Z,22.03
2018-10-11T10:11:03.128Z,25.67
2018-10-11T10:15:05.657Z,23.87
2018-10-11T10:19:08.107Z,24.87
2018-10-11T10:23:10.493Z,25.93
2018-10-11T10:27:13.007Z,25.73
2018-10-11T10:31:15.302Z,27.30
2018-10-11T10:35:17.666Z,25.70
2018-10-11T10:39:20.248Z,25.97
2018-10-11T10:43:22.612Z,24.17
2018-10-11T10:47:24.957Z,22.50
2018-10-11T10:51:27.309Z,23.57
2018-10-11T10:55:29.663Z,24.47
2018-10-11T10:59:32.184Z,23.80
2018-10-11T11:03:34.537Z,19.87
2018-10-11T11:07:36.927Z,25.57
2018-10-11T11:11:39.637Z,24.47
2018-10-11T11:15:42.000Z,28.60
2018-10-11T11:19:44.354Z,24.07
2018-10-11T11:23:46.753Z,21.90
2018-10-11T11:27:49.322Z,21.70
2018-10-11T11:31:51.653Z,22.40
2018-10-11T11:35:54.004Z,26.00
2018-10-11T11:39:56.376Z,21.87
2018-10-11T11:43:58.659Z,22.00
2018-10-11T11:48:01.106Z,23.53
2018-10-11T11:52:03.525Z,24.13
2018-10-11T11:56:05.969Z,23.57
2018-10-11T12:00:08.379Z,24.37
2018-10-11T12:04:10.738Z,27.53
2018-10-11T12:08:13.133Z,25.67
2018-10-11T12:13:23.589Z,27.20
2018-10-11T12:17:25.943Z,28.43
2018-10-11T12:21:28.304Z,26.40
2018-10-11T12:25:31.151Z,25.63
2018-10-11T12:29:37.091Z,27.57
2018-10-11T12:33:39.517Z,25.03
2018-10-11T12:37:41.973Z,25.13
2018-10-11T12:41:44.298Z,24.57
2018-10-11T12:45:46.801Z,25.03
2018-10-11T12:49:49.486Z,27.47
2018-10-11T12:53:52.416Z,27.47
2018-10-11T12:57:54.863Z,27.40
2018-10-11T13:01:57.576Z,28.53
2018-10-11T13:06:00.074Z,25.83
2018-10-11T13:10:03.023Z,23.20
2018-10-11T13:14:05.558Z,27.73
2018-10-11T13:18:08.209Z,23.50
2018-10-11T13:22:10.604Z,24.20
2018-10-11T13:26:13.076Z,24.63
2018-10-11T13:30:15.428Z,25.23
2018-10-11T13:34:18.013Z,24.57
2018-10-11T13:38:20.427Z,25.47
2018-10-11T13:42:22.849Z,24.83
2018-10-11T13:46:25.430Z,25.17
2018-10-11T13:50:27.762Z,29.27
2018-10-11T13:54:30.666Z,25.27
2018-10-11T13:58:33.072Z,24.03
2018-10-11T14:02:35.983Z,22.73
2018-10-11T14:06:38.632Z,23.87
2018-10-11T14:10:41.331Z,25.47
2018-10-11T14:14:43.762Z,26.53
2018-10-11T14:18:46.366Z,26.13
2018-10-11T14:22:48.690Z,28.03
2018-10-11T14:26:51.507Z,25.90
2018-10-11T14:30:53.821Z,24.33
2018-10-11T14:34:56.212Z,24.37
2018-10-11T14:39:00.791Z,24.67
2018-10-11T14:43:03.689Z,25.30
2018-10-11T14:47:06.119Z,26.13
2018-10-11T14:51:09.134Z,24.40
2018-10-11T14:55:11.476Z,25.33
2018-10-11T14:59:13.854Z,27.43
2018-10-11T15:03:16.301Z,25.90
2018-10-11T15:07:18.899Z,26.17
2018-10-11T15:11:21.983Z,26.37
2018-10-11T15:15:24.529Z,28.10
2018-10-11T15:19:27.142Z,25.67
2018-10-11T15:23:29.659Z,25.77
2018-10-11T15:27:32.355Z,27.17
2018-10-11T15:31:34.785Z,31.37
2018-10-11T15:35:37.196Z,29.77
2018-10-11T15:39:39.681Z,27.53
2018-10-11T15:43:42.091Z,35.10
2018-10-11T15:47:44.471Z,29.97
2018-10-11T15:51:46.864Z,25.97
2018-10-11T15:55:49.235Z,27.97
2018-10-11T15:59:51.791Z,25.60
2018-10-11T16:03:54.310Z,28.10
2018-10-11T16:07:56.640Z,25.87
2018-10-11T16:11:59.201Z,27.03
2018-10-11T16:16:01.514Z,25.80
2018-10-11T16:20:04.152Z,25.23
2018-10-11T16:24:06.550Z,25.10
2018-10-11T16:28:08.939Z,22.77
2018-10-11T16:32:11.416Z,21.50
2018-10-11T16:36:13.759Z,22.40
2018-10-11T16:40:16.251Z,21.63
2018-10-11T16:44:18.617Z,20.17
2018-10-11T16:48:21.024Z,18.90
2018-10-11T16:52:23.386Z,19.63
2018-10-11T16:56:25.713Z,19.40
2018-10-11T17:00:28.093Z,19.97
2018-10-11T17:04:30.497Z,20.17
2018-10-11T17:08:32.904Z,21.03
2018-10-11T17:12:35.310Z,21.37
2018-10-11T17:16:37.683Z,20.60
2018-10-11T17:20:40.044Z,18.67
2018-10-11T17:24:42.416Z,18.43
2018-10-11T17:28:44.845Z,18.47
2018-10-11T17:32:47.359Z,19.67
2018-10-11T17:36:49.780Z,19.77
2018-10-11T17:40:52.246Z,22.87
2018-10-11T17:44:54.776Z,20.10
2018-10-11T17:48:57.246Z,22.30
2018-10-11T17:52:59.685Z,23.77
2018-10-11T17:57:02.061Z,20.93
2018-10-11T18:01:04.470Z,20.67
2018-10-11T18:05:06.958Z,20.43
2018-10-11T18:09:10.285Z,22.50
2018-10-11T18:13:12.656Z,20.17
2018-10-11T18:17:15.022Z,22.10
2018-10-11T18:21:17.485Z,19.97
2018-10-11T18:25:19.783Z,21.17
2018-10-11T18:29:22.255Z,21.43
2018-10-11T18:33:24.613Z,19.93
2018-10-11T18:37:26.966Z,19.77
2018-10-11T18:41:29.319Z,18.93
2018-10-11T18:45:31.682Z,21.80
2018-10-11T18:49:34.024Z,21.77
2018-10-11T18:53:36.613Z,20.33
2018-10-11T18:57:39.041Z,20.10
2018-10-11T19:01:41.740Z,19.60
2018-10-11T19:05:44.319Z,19.93
2018-10-11T19:09:46.662Z,22.13
2018-10-11T19:13:49.021Z,19.83
2018-10-11T19:17:51.362Z,19.60
2018-10-11T19:21:53.807Z,20.37
2018-10-11T19:25:56.255Z,19.85
2018-10-11T19:29:58.597Z,20.90
2018-10-11T19:34:00.984Z,18.77
2018-10-11T19:38:03.368Z,22.13
2018-10-11T19:42:05.731Z,20.50
2018-10-11T19:46:08.370Z,20.27
2018-10-11T19:50:10.749Z,20.40
2018-10-11T19:54:13.819Z,24.53
2018-10-11T19:58:16.295Z,19.47
2018-10-11T20:02:18.803Z,21.07
2018-10-11T20:06:21.255Z,20.80
2018-10-11T20:10:23.688Z,22.40
2018-10-11T20:14:25.995Z,21.23
2018-10-11T20:18:28.373Z,19.77
2018-10-11T20:22:30.715Z,18.80
2018-10-11T20:26:33.084Z,18.20
2018-10-11T20:30:35.547Z,17.50
2018-10-11T20:34:37.906Z,18.27
2018-10-11T20:38:40.261Z,18.63
2018-10-11T20:42:42.618Z,18.43
2018-10-11T20:46:44.980Z,19.43
2018-10-11T20:50:47.378Z,20.10
2018-10-11T20:54:49.727Z,18.80
2018-10-11T20:58:52.073Z,20.20
2018-10-11T21:02:54.455Z,19.53
2018-10-11T21:06:56.839Z,17.87
2018-10-11T21:10:59.182Z,18.57
2018-10-11T21:15:01.544Z,20.97
2018-10-11T21:19:04.008Z,20.87
2018-10-11T21:23:06.420Z,18.43
2018-10-11T21:27:08.807Z,19.30
2018-10-11T21:31:11.183Z,18.63
2018-10-11T21:35:13.545Z,18.30
2018-10-11T21:39:15.862Z,19.50
2018-10-11T21:43:18.153Z,19.30
2018-10-11T21:47:20.524Z,16.93
2018-10-11T21:51:22.872Z,19.87
2018-10-11T21:55:25.395Z,15.37
2018-10-11T21:59:27.742Z,18.00
2018-10-11T22:03:30.076Z,16.23
2018-10-11T22:07:32.504Z,16.53
2018-10-11T22:11:34.926Z,16.13
2018-10-11T22:15:37.336Z,16.70
2018-10-11T22:19:39.774Z,17.57
2018-10-11T22:23:42.848Z,16.97
2018-10-11T22:27:45.696Z,18.00
2018-10-11T22:31:57.582Z,16.50
2018-10-11T22:36:01.017Z,17.57
2018-10-11T22:40:03.699Z,16.87
2018-10-11T22:44:07.074Z,17.37
2018-10-11T22:48:10.014Z,16.90
2018-10-11T22:52:12.781Z,17.67
2018-10-11T22:56:19.875Z,20.77
2018-10-11T23:00:22.608Z,16.73
2018-10-11T23:04:25.202Z,17.93
2018-10-11T23:08:27.587Z,20.23
2018-10-11T23:12:30.107Z,20.37
2018-10-11T23:16:32.590Z,24.57
2018-10-11T23:20:34.930Z,23.37
2018-10-11T23:24:37.258Z,21.83
2018-10-11T23:28:40.106Z,19.57
2018-10-11T23:32:42.566Z,19.77
2018-10-11T23:36:44.882Z,17.97
2018-10-11T23:40:47.211Z,17.90
2018-10-11T23:44:49.577Z,15.70
2018-10-11T23:48:51.870Z,14.47
2018-10-11T23:52:54.231Z,16.93
2018-10-11T23:56:56.525Z,15.57
